Higman Mariner — WDI3837 — position and weather

sailwx.info

Track history (hours):
 
Tides and Currents Weather Stations Pressure Air Temp Water Temp Dewpoint Dewpoint Depression Visibility Wind Speed Wind Dir Waves Ship Positions

Higman Mariner

Owner: Higman Barge Lines, Inc., Orange, TX. More information available from US FCC via Universal Licensing System and Coast Guard Vessel Documentation Center.

Last reported at 2018-Feb-12 13:15 UTC. Time now 2018-Feb-26 01:53 UTC.
Position N 29°34' W 090°23'.
Warning: this ship's position is 13 days out of date.

Length 24 m; draft 2.5 m.

Type: Tow > 200 m length. MMSI: 367692430.

Date/timePositionNaut miles runAvg speedWind from/ knotsBaromVisibWave heightAir tempDewpointWater temp
2018-Feb-12 13:15N 29°34' W 090°23'1 3.8
2018-Feb-12 12:58N 29°33' W 090°24'3 5.4
2018-Feb-12 12:27N 29°33' W 090°27'2 5.4
2018-Feb-12 12:00N 29°34' W 090°30'3 5.2
2018-Feb-12 11:30N 29°34' W 090°33'2 4.8
2018-Feb-12 11:00N 29°35' W 090°36'2 4.5
2018-Feb-12 10:30N 29°35' W 090°38'2 4.7
2018-Feb-12 10:00N 29°36' W 090°41'2 3.1
2018-Feb-12 09:30N 29°36' W 090°43'2 3.8
2018-Feb-12 09:00N 29°34' W 090°43'2 3.2
2018-Feb-12 08:30N 29°34' W 090°45'2 4.3
2018-Feb-12 08:00N 29°32' W 090°46'3 5.8
2018-Feb-12 07:30N 29°32' W 090°50'3 6.0
2018-Feb-12 06:59N 29°33' W 090°53'3 6.3
2018-Feb-12 06:29N 29°34' W 090°57'56 4.2
2018-Feb-11 17:00N 29°50' W 091°59'2 3.5
2018-Feb-11 16:30N 29°50' W 092°01'1 2.7
2018-Feb-11 16:00N 29°49' W 092°02'1 2.5
2018-Feb-11 15:30N 29°49' W 092°03'1 1.8
2018-Feb-11 15:00N 29°48' W 092°04'0 0.0
2018-Feb-11 14:30N 29°48' W 092°04'0 0.0
2018-Feb-11 14:00N 29°48' W 092°04'0 0.0
2018-Feb-11 13:30N 29°48' W 092°04'0 0.0
2018-Feb-11 13:00N 29°48' W 092°04'0 0.0
2018-Feb-11 12:30N 29°48' W 092°04'0 0.0
2018-Feb-11 12:00N 29°48' W 092°04'0 0.0
2018-Feb-11 11:31N 29°48' W 092°04'0 0.0
2018-Feb-11 11:01N 29°48' W 092°04'0 0.0
2018-Feb-11 10:31N 29°48' W 092°04'0 0.0
2018-Feb-11 10:01N 29°48' W 092°04'0 0.0
2018-Feb-11 09:31N 29°48' W 092°04'0 0.0
2018-Feb-11 09:00N 29°48' W 092°04'0 0.0
2018-Feb-11 08:30N 29°48' W 092°04'0 0.0
2018-Feb-11 08:00N 29°48' W 092°04'0 0.0
2018-Feb-11 07:31N 29°48' W 092°04'0 0.0
2018-Feb-11 07:00N 29°48' W 092°04'0 0.0
2018-Feb-11 06:31N 29°48' W 092°04'0 0.0
2018-Feb-11 05:58N 29°48' W 092°04'0 0.0
2018-Feb-11 05:30N 29°48' W 092°04'0 0.1
2018-Feb-11 04:53N 29°48' W 092°04'0 0.0
2018-Feb-11 04:30N 29°48' W 092°04'0 0.8
2018-Feb-11 04:01N 29°48' W 092°05'2 4.4
2018-Feb-11 03:31N 29°47' W 092°07'2 4.6
2018-Feb-11 03:01N 29°47' W 092°10'2 3.8
2018-Feb-11 02:30N 29°47' W 092°12'1 1.6
2018-Feb-11 02:01N 29°47' W 092°13'1 1.5
2018-Feb-11 01:31N 29°48' W 092°14'0 0.5
2018-Feb-11 01:00N 29°48' W 092°14'1 1.4
2018-Feb-11 00:30N 29°48' W 092°15'2 4.8
2018-Feb-11 00:00N 29°49' W 092°17'2 5.0
2018-Feb-10 23:31N 29°50' W 092°19'38 5.1
2018-Feb-10 15:58N 29°56' W 093°03'2 4.6
2018-Feb-10 15:31N 29°56' W 093°06'2 3.3
2018-Feb-10 15:00N 29°56' W 093°07'2 4.5
2018-Feb-10 14:30N 29°56' W 093°10'2 4.8
2018-Feb-10 14:00N 29°58' W 093°12'2 4.4
2018-Feb-10 13:30N 29°60' W 093°13'2 3.0
2018-Feb-10 13:00N 30°01' W 093°14'0 0.7
2018-Feb-10 12:30N 30°02' W 093°14'0 0.0
2018-Feb-10 12:00N 30°02' W 093°14'0 0.0
2018-Feb-10 11:30N 30°02' W 093°14'0 0.0
2018-Feb-10 11:00N 30°02' W 093°14'0 0.0
2018-Feb-10 10:30N 30°02' W 093°14'0 0.0
2018-Feb-10 10:00N 30°02' W 093°14'0 0.0
2018-Feb-10 09:30N 30°02' W 093°14'0 0.0
2018-Feb-10 09:00N 30°02' W 093°14'0 0.2
2018-Feb-10 08:30N 30°02' W 093°14'1 2.2
2018-Feb-10 08:00N 30°02' W 093°15'2 3.9
2018-Feb-10 07:30N 30°04' W 093°16'2 3.8
2018-Feb-10 07:00N 30°05' W 093°18'1 1.6
2018-Feb-10 06:30N 30°06' W 093°18'1 2.0
2018-Feb-10 06:00N 30°06' W 093°19'1 2.9
2018-Feb-10 05:30N 30°07' W 093°20'3 5.2
2018-Feb-10 05:00N 30°10' W 093°20'2 3.5
2018-Feb-10 04:30N 30°11' W 093°19'0 0.0
2018-Feb-10 04:00N 30°11' W 093°19'0 0.2
2018-Feb-10 03:27N 30°11' W 093°19'0 0.0
2018-Feb-10 03:00N 30°11' W 093°19'0 0.0
2018-Feb-10 02:30N 30°11' W 093°19'0 0.0
2018-Feb-10 02:00N 30°11' W 093°19'0 0.0
2018-Feb-10 01:30N 30°11' W 093°19'0 0.0
2018-Feb-10 01:00N 30°11' W 093°19'  
2018-Feb-03 19:48N 30°04' W 093°21'0 0.0
2018-Feb-03 18:28N 30°04' W 093°21'0 0.0
2018-Feb-03 18:00N 30°04' W 093°21'0 0.0
2018-Feb-03 17:30N 30°04' W 093°21'0 0.0
2018-Feb-03 17:01N 30°04' W 093°21'0 0.0
2018-Feb-03 16:00N 30°04' W 093°21'0 0.0
2018-Feb-03 15:30N 30°04' W 093°21'0 0.0
2018-Feb-03 15:00N 30°04' W 093°21'0 0.0
2018-Feb-03 14:30N 30°04' W 093°21'0 0.0
2018-Feb-03 14:00N 30°04' W 093°21'0 0.0
2018-Feb-03 13:30N 30°04' W 093°21'0 0.0
2018-Feb-03 13:00N 30°04' W 093°21'0 0.0
2018-Feb-03 12:30N 30°04' W 093°21'0 0.0
2018-Feb-03 12:01N 30°04' W 093°21'0 0.0
2018-Feb-03 11:30N 30°04' W 093°21'0 0.0
2018-Feb-03 11:01N 30°04' W 093°21'0 0.0
2018-Feb-03 10:30N 30°04' W 093°21'0 0.0
2018-Feb-03 10:00N 30°04' W 093°21'0 0.0
2018-Feb-03 09:30N 30°04' W 093°21'0 0.0
2018-Feb-03 09:00N 30°04' W 093°21'0 0.0
2018-Feb-03 08:30N 30°04' W 093°21'0 0.0
2018-Feb-03 08:00N 30°04' W 093°21'0 0.0
2018-Feb-03 06:30N 30°04' W 093°21'0 0.0
2018-Feb-03 06:00N 30°04' W 093°21'0 0.1
2018-Feb-03 05:30N 30°04' W 093°21'2 4.1
2018-Feb-03 05:00N 30°06' W 093°19'1 0.7
2018-Feb-03 04:00N 30°06' W 093°19'2 4.5
2018-Feb-03 03:30N 30°05' W 093°17'1 0.7
2018-Feb-03 02:00N 30°04' W 093°16'0 0.8
2018-Feb-03 01:30N 30°04' W 093°16'0 0.1
2018-Feb-03 01:00N 30°04' W 093°16'2 4.7
2018-Feb-03 00:30N 30°02' W 093°14'3 6.7
2018-Feb-03 00:00N 29°59' W 093°12'4 7.0
2018-Feb-02 23:29N 29°56' W 093°09'0 0.4
2018-Feb-02 23:00N 29°56' W 093°09'0 0.1
2018-Feb-02 22:31N 29°56' W 093°09'0 0.0
2018-Feb-02 22:00N 29°56' W 093°09'0 0.0
2018-Feb-02 21:30N 29°56' W 093°09'0 0.0
2018-Feb-02 20:59N 29°56' W 093°09'0 0.0
2018-Feb-02 20:31N 29°56' W 093°09'0 0.1
2018-Feb-02 20:00N 29°56' W 093°09'0 0.5
2018-Feb-02 19:00N 29°56' W 093°10'0 0.0
2018-Feb-02 18:30N 29°56' W 093°10'0 0.0
2018-Feb-02 18:01N 29°56' W 093°10'0 0.0
2018-Feb-02 17:30N 29°56' W 093°10'2 3.2
2018-Feb-02 17:00N 29°56' W 093°08'3 6.6
2018-Feb-02 16:30N 29°56' W 093°04'  
Track history (hours):
 
Tides and Currents Weather Stations Pressure Air Temp Water Temp Dewpoint Dewpoint Depression Visibility Wind Speed Wind Dir Waves Ship Positions

Higman Mariner

Owner: Higman Barge Lines, Inc., Orange, TX. More information available from US FCC via Universal Licensing System and Coast Guard Vessel Documentation Center.

Last reported at 2018-Feb-12 13:15 UTC. Time now 2018-Feb-26 01:53 UTC.
Position N 29°34' W 090°23'.
Warning: this ship's position is 13 days out of date.

Length 24 m; draft 2.5 m.

Type: Tow > 200 m length. MMSI: 367692430.

Date/timePositionNaut miles runAvg speedWind from/ knotsBaromVisibWave heightAir tempDewpointWater temp
2018-Feb-12 13:15N 29°34' W 090°23'1 3.8
2018-Feb-12 12:58N 29°33' W 090°24'3 5.4
2018-Feb-12 12:27N 29°33' W 090°27'2 5.4
2018-Feb-12 12:00N 29°34' W 090°30'3 5.2
2018-Feb-12 11:30N 29°34' W 090°33'2 4.8
2018-Feb-12 11:00N 29°35' W 090°36'2 4.5
2018-Feb-12 10:30N 29°35' W 090°38'2 4.7
2018-Feb-12 10:00N 29°36' W 090°41'2 3.1
2018-Feb-12 09:30N 29°36' W 090°43'2 3.8
2018-Feb-12 09:00N 29°34' W 090°43'2 3.2
2018-Feb-12 08:30N 29°34' W 090°45'2 4.3
2018-Feb-12 08:00N 29°32' W 090°46'3 5.8
2018-Feb-12 07:30N 29°32' W 090°50'3 6.0
2018-Feb-12 06:59N 29°33' W 090°53'3 6.3
2018-Feb-12 06:29N 29°34' W 090°57'56 4.2
2018-Feb-11 17:00N 29°50' W 091°59'2 3.5
2018-Feb-11 16:30N 29°50' W 092°01'1 2.7
2018-Feb-11 16:00N 29°49' W 092°02'1 2.5
2018-Feb-11 15:30N 29°49' W 092°03'1 1.8
2018-Feb-11 15:00N 29°48' W 092°04'0 0.0
2018-Feb-11 14:30N 29°48' W 092°04'0 0.0
2018-Feb-11 14:00N 29°48' W 092°04'0 0.0
2018-Feb-11 13:30N 29°48' W 092°04'0 0.0
2018-Feb-11 13:00N 29°48' W 092°04'0 0.0
2018-Feb-11 12:30N 29°48' W 092°04'0 0.0
2018-Feb-11 12:00N 29°48' W 092°04'0 0.0
2018-Feb-11 11:31N 29°48' W 092°04'0 0.0
2018-Feb-11 11:01N 29°48' W 092°04'0 0.0
2018-Feb-11 10:31N 29°48' W 092°04'0 0.0
2018-Feb-11 10:01N 29°48' W 092°04'0 0.0
2018-Feb-11 09:31N 29°48' W 092°04'0 0.0
2018-Feb-11 09:00N 29°48' W 092°04'0 0.0
2018-Feb-11 08:30N 29°48' W 092°04'0 0.0
2018-Feb-11 08:00N 29°48' W 092°04'0 0.0
2018-Feb-11 07:31N 29°48' W 092°04'0 0.0
2018-Feb-11 07:00N 29°48' W 092°04'0 0.0
2018-Feb-11 06:31N 29°48' W 092°04'0 0.0
2018-Feb-11 05:58N 29°48' W 092°04'0 0.0
2018-Feb-11 05:30N 29°48' W 092°04'0 0.1
2018-Feb-11 04:53N 29°48' W 092°04'0 0.0
2018-Feb-11 04:30N 29°48' W 092°04'0 0.8
2018-Feb-11 04:01N 29°48' W 092°05'2 4.4
2018-Feb-11 03:31N 29°47' W 092°07'2 4.6
2018-Feb-11 03:01N 29°47' W 092°10'2 3.8
2018-Feb-11 02:30N 29°47' W 092°12'1 1.6
2018-Feb-11 02:01N 29°47' W 092°13'1 1.5
2018-Feb-11 01:31N 29°48' W 092°14'0 0.5
2018-Feb-11 01:00N 29°48' W 092°14'1 1.4
2018-Feb-11 00:30N 29°48' W 092°15'2 4.8
2018-Feb-11 00:00N 29°49' W 092°17'2 5.0
2018-Feb-10 23:31N 29°50' W 092°19'38 5.1
2018-Feb-10 15:58N 29°56' W 093°03'2 4.6
2018-Feb-10 15:31N 29°56' W 093°06'2 3.3
2018-Feb-10 15:00N 29°56' W 093°07'2 4.5
2018-Feb-10 14:30N 29°56' W 093°10'2 4.8
2018-Feb-10 14:00N 29°58' W 093°12'2 4.4
2018-Feb-10 13:30N 29°60' W 093°13'2 3.0
2018-Feb-10 13:00N 30°01' W 093°14'0 0.7
2018-Feb-10 12:30N 30°02' W 093°14'0 0.0
2018-Feb-10 12:00N 30°02' W 093°14'0 0.0
2018-Feb-10 11:30N 30°02' W 093°14'0 0.0
2018-Feb-10 11:00N 30°02' W 093°14'0 0.0
2018-Feb-10 10:30N 30°02' W 093°14'0 0.0
2018-Feb-10 10:00N 30°02' W 093°14'0 0.0
2018-Feb-10 09:30N 30°02' W 093°14'0 0.0
2018-Feb-10 09:00N 30°02' W 093°14'0 0.2
2018-Feb-10 08:30N 30°02' W 093°14'1 2.2
2018-Feb-10 08:00N 30°02' W 093°15'2 3.9
2018-Feb-10 07:30N 30°04' W 093°16'2 3.8
2018-Feb-10 07:00N 30°05' W 093°18'1 1.6
2018-Feb-10 06:30N 30°06' W 093°18'1 2.0
2018-Feb-10 06:00N 30°06' W 093°19'1 2.9
2018-Feb-10 05:30N 30°07' W 093°20'3 5.2
2018-Feb-10 05:00N 30°10' W 093°20'2 3.5
2018-Feb-10 04:30N 30°11' W 093°19'0 0.0
2018-Feb-10 04:00N 30°11' W 093°19'0 0.2
2018-Feb-10 03:27N 30°11' W 093°19'0 0.0
2018-Feb-10 03:00N 30°11' W 093°19'0 0.0
2018-Feb-10 02:30N 30°11' W 093°19'0 0.0
2018-Feb-10 02:00N 30°11' W 093°19'0 0.0
2018-Feb-10 01:30N 30°11' W 093°19'0 0.0
2018-Feb-10 01:00N 30°11' W 093°19'  
2018-Feb-03 19:48N 30°04' W 093°21'0 0.0
2018-Feb-03 18:28N 30°04' W 093°21'0 0.0
2018-Feb-03 18:00N 30°04' W 093°21'0 0.0
2018-Feb-03 17:30N 30°04' W 093°21'0 0.0
2018-Feb-03 17:01N 30°04' W 093°21'0 0.0
2018-Feb-03 16:00N 30°04' W 093°21'0 0.0
2018-Feb-03 15:30N 30°04' W 093°21'0 0.0
2018-Feb-03 15:00N 30°04' W 093°21'0 0.0
2018-Feb-03 14:30N 30°04' W 093°21'0 0.0
2018-Feb-03 14:00N 30°04' W 093°21'0 0.0
2018-Feb-03 13:30N 30°04' W 093°21'0 0.0
2018-Feb-03 13:00N 30°04' W 093°21'0 0.0
2018-Feb-03 12:30N 30°04' W 093°21'0 0.0
2018-Feb-03 12:01N 30°04' W 093°21'0 0.0
2018-Feb-03 11:30N 30°04' W 093°21'0 0.0
2018-Feb-03 11:01N 30°04' W 093°21'0 0.0
2018-Feb-03 10:30N 30°04' W 093°21'0 0.0
2018-Feb-03 10:00N 30°04' W 093°21'0 0.0
2018-Feb-03 09:30N 30°04' W 093°21'0 0.0
2018-Feb-03 09:00N 30°04' W 093°21'0 0.0
2018-Feb-03 08:30N 30°04' W 093°21'0 0.0
2018-Feb-03 08:00N 30°04' W 093°21'0 0.0
2018-Feb-03 06:30N 30°04' W 093°21'0 0.0
2018-Feb-03 06:00N 30°04' W 093°21'0 0.1
2018-Feb-03 05:30N 30°04' W 093°21'2 4.1
2018-Feb-03 05:00N 30°06' W 093°19'1 0.7
2018-Feb-03 04:00N 30°06' W 093°19'2 4.5
2018-Feb-03 03:30N 30°05' W 093°17'1 0.7
2018-Feb-03 02:00N 30°04' W 093°16'0 0.8
2018-Feb-03 01:30N 30°04' W 093°16'0 0.1
2018-Feb-03 01:00N 30°04' W 093°16'2 4.7
2018-Feb-03 00:30N 30°02' W 093°14'3 6.7
2018-Feb-03 00:00N 29°59' W 093°12'4 7.0
2018-Feb-02 23:29N 29°56' W 093°09'0 0.4
2018-Feb-02 23:00N 29°56' W 093°09'0 0.1
2018-Feb-02 22:31N 29°56' W 093°09'0 0.0
2018-Feb-02 22:00N 29°56' W 093°09'0 0.0
2018-Feb-02 21:30N 29°56' W 093°09'0 0.0
2018-Feb-02 20:59N 29°56' W 093°09'0 0.0
2018-Feb-02 20:31N 29°56' W 093°09'0 0.1
2018-Feb-02 20:00N 29°56' W 093°09'0 0.5
2018-Feb-02 19:00N 29°56' W 093°10'0 0.0
2018-Feb-02 18:30N 29°56' W 093°10'0 0.0
2018-Feb-02 18:01N 29°56' W 093°10'0 0.0
2018-Feb-02 17:30N 29°56' W 093°10'2 3.2
2018-Feb-02 17:00N 29°56' W 093°08'3 6.6
2018-Feb-02 16:30N 29°56' W 093°04'  

Dump ship's entire track history